sensor_id;sensor_type;location;lat;lon;timestamp;P1;durP1;ratioP1;P2;durP2;ratioP2
72132;SDS011;60008;50.826;6.896;2023-02-11T00:00:17;22.70;;;9.83;;
72132;SDS011;60008;50.826;6.896;2023-02-11T00:03:02;26.88;;;10.88;;
72132;SDS011;60008;50.826;6.896;2023-02-11T00:05:58;27.98;;;10.38;;
72132;SDS011;60008;50.826;6.896;2023-02-11T00:08:48;23.88;;;10.15;;
72132;SDS011;60008;50.826;6.896;2023-02-11T00:11:33;23.13;;;9.40;;
72132;SDS011;60008;50.826;6.896;2023-02-11T00:14:18;19.90;;;8.93;;
72132;SDS011;60008;50.826;6.896;2023-02-11T00:17:03;20.33;;;8.48;;
72132;SDS011;60008;50.826;6.896;2023-02-11T00:19:49;23.80;;;10.10;;
72132;SDS011;60008;50.826;6.896;2023-02-11T00:22:35;22.65;;;9.93;;
72132;SDS011;60008;50.826;6.896;2023-02-11T00:25:20;24.30;;;9.10;;
72132;SDS011;60008;50.826;6.896;2023-02-11T00:28:05;17.07;;;8.10;;
72132;SDS011;60008;50.826;6.896;2023-02-11T00:30:54;17.75;;;7.75;;
72132;SDS011;60008;50.826;6.896;2023-02-11T00:33:40;17.77;;;7.28;;
72132;SDS011;60008;50.826;6.896;2023-02-11T00:36:26;7.18;;;2.90;;
72132;SDS011;60008;50.826;6.896;2023-02-11T00:39:12;14.07;;;6.00;;
72132;SDS011;60008;50.826;6.896;2023-02-11T00:41:57;15.87;;;7.03;;
72132;SDS011;60008;50.826;6.896;2023-02-11T00:44:43;17.05;;;6.53;;
72132;SDS011;60008;50.826;6.896;2023-02-11T00:47:27;13.27;;;6.63;;
72132;SDS011;60008;50.826;6.896;2023-02-11T00:50:13;18.15;;;6.18;;
72132;SDS011;60008;50.826;6.896;2023-02-11T00:52:57;18.27;;;6.78;;
72132;SDS011;60008;50.826;6.896;2023-02-11T00:55:43;14.20;;;6.10;;
72132;SDS011;60008;50.826;6.896;2023-02-11T00:58:27;15.18;;;6.65;;
72132;SDS011;60008;50.826;6.896;2023-02-11T01:01:13;17.15;;;7.65;;
72132;SDS011;60008;50.826;6.896;2023-02-11T01:03:58;13.57;;;6.47;;
72132;SDS011;60008;50.826;6.896;2023-02-11T01:06:43;21.95;;;7.57;;
72132;SDS011;60008;50.826;6.896;2023-02-11T01:09:28;17.70;;;7.63;;
72132;SDS011;60008;50.826;6.896;2023-02-11T01:12:13;16.95;;;7.07;;
72132;SDS011;60008;50.826;6.896;2023-02-11T01:14:58;11.07;;;4.93;;
72132;SDS011;60008;50.826;6.896;2023-02-11T01:17:43;12.18;;;5.43;;
72132;SDS011;60008;50.826;6.896;2023-02-11T01:20:29;13.35;;;5.60;;
72132;SDS011;60008;50.826;6.896;2023-02-11T01:23:14;14.90;;;6.60;;
72132;SDS011;60008;50.826;6.896;2023-02-11T01:25:59;15.23;;;6.70;;
72132;SDS011;60008;50.826;6.896;2023-02-11T01:28:44;15.70;;;7.22;;
72132;SDS011;60008;50.826;6.896;2023-02-11T01:31:29;19.50;;;6.95;;
72132;SDS011;60008;50.826;6.896;2023-02-11T01:34:15;17.88;;;7.32;;
72132;SDS011;60008;50.826;6.896;2023-02-11T01:37:00;16.03;;;7.20;;
72132;SDS011;60008;50.826;6.896;2023-02-11T01:39:45;17.77;;;7.80;;
72132;SDS011;60008;50.826;6.896;2023-02-11T01:42:31;23.42;;;7.43;;
72132;SDS011;60008;50.826;6.896;2023-02-11T01:48:35;14.25;;;6.32;;
72132;SDS011;60008;50.826;6.896;2023-02-11T01:51:26;20.47;;;7.13;;
72132;SDS011;60008;50.826;6.896;2023-02-11T01:54:17;18.75;;;6.85;;
72132;SDS011;60008;50.826;6.896;2023-02-11T01:57:25;19.33;;;7.78;;
72132;SDS011;60008;50.826;6.896;2023-02-11T02:03:12;19.65;;;7.57;;
72132;SDS011;60008;50.826;6.896;2023-02-11T02:06:02;18.40;;;7.83;;
72132;SDS011;60008;50.826;6.896;2023-02-11T02:09:01;16.95;;;7.22;;
72132;SDS011;60008;50.826;6.896;2023-02-11T02:11:50;19.35;;;8.70;;
72132;SDS011;60008;50.826;6.896;2023-02-11T02:14:39;20.23;;;8.68;;
72132;SDS011;60008;50.826;6.896;2023-02-11T02:17:34;20.48;;;9.02;;
72132;SDS011;60008;50.826;6.896;2023-02-11T02:20:42;15.57;;;6.07;;
72132;SDS011;60008;50.826;6.896;2023-02-11T02:35:31;20.67;;;9.37;;
72132;SDS011;60008;50.826;6.896;2023-02-11T02:41:10;22.80;;;9.57;;
72132;SDS011;60008;50.826;6.896;2023-02-11T02:43:57;24.30;;;10.00;;
72132;SDS011;60008;50.826;6.896;2023-02-11T02:46:42;22.67;;;10.18;;
72132;SDS011;60008;50.826;6.896;2023-02-11T02:49:28;22.37;;;10.47;;
72132;SDS011;60008;50.826;6.896;2023-02-11T02:52:34;22.88;;;9.93;;
72132;SDS011;60008;50.826;6.896;2023-02-11T02:58:49;20.17;;;6.78;;
72132;SDS011;60008;50.826;6.896;2023-02-11T03:05:04;28.33;;;10.17;;
72132;SDS011;60008;50.826;6.896;2023-02-11T03:07:57;23.75;;;10.05;;
72132;SDS011;60008;50.826;6.896;2023-02-11T03:10:49;17.20;;;6.18;;
72132;SDS011;60008;50.826;6.896;2023-02-11T03:13:37;29.17;;;10.68;;
72132;SDS011;60008;50.826;6.896;2023-02-11T03:16:25;23.58;;;9.50;;
72132;SDS011;60008;50.826;6.896;2023-02-11T03:19:13;22.03;;;9.77;;
72132;SDS011;60008;50.826;6.896;2023-02-11T03:22:02;25.92;;;8.73;;
72132;SDS011;60008;50.826;6.896;2023-02-11T03:24:51;17.25;;;8.15;;
72132;SDS011;60008;50.826;6.896;2023-02-11T03:27:51;22.52;;;10.10;;
72132;SDS011;60008;50.826;6.896;2023-02-11T03:30:46;26.58;;;9.95;;
72132;SDS011;60008;50.826;6.896;2023-02-11T03:33:59;18.13;;;7.87;;
72132;SDS011;60008;50.826;6.896;2023-02-11T03:36:51;22.48;;;9.98;;
72132;SDS011;60008;50.826;6.896;2023-02-11T03:39:58;22.40;;;9.93;;
72132;SDS011;60008;50.826;6.896;2023-02-11T03:42:53;22.30;;;9.38;;
72132;SDS011;60008;50.826;6.896;2023-02-11T03:45:44;22.13;;;9.27;;
72132;SDS011;60008;50.826;6.896;2023-02-11T03:48:33;18.80;;;8.53;;
72132;SDS011;60008;50.826;6.896;2023-02-11T03:51:25;6.85;;;3.05;;
72132;SDS011;60008;50.826;6.896;2023-02-11T03:54:13;24.35;;;9.43;;
72132;SDS011;60008;50.826;6.896;2023-02-11T03:57:02;18.23;;;7.07;;
72132;SDS011;60008;50.826;6.896;2023-02-11T04:02:38;17.70;;;6.60;;
72132;SDS011;60008;50.826;6.896;2023-02-11T04:05:23;24.77;;;9.13;;
72132;SDS011;60008;50.826;6.896;2023-02-11T04:08:08;21.02;;;9.93;;
72132;SDS011;60008;50.826;6.896;2023-02-11T04:10:54;19.45;;;7.97;;
72132;SDS011;60008;50.826;6.896;2023-02-11T04:13:39;22.60;;;10.23;;
72132;SDS011;60008;50.826;6.896;2023-02-11T04:16:24;28.53;;;11.00;;
72132;SDS011;60008;50.826;6.896;2023-02-11T04:19:09;22.88;;;9.55;;
72132;SDS011;60008;50.826;6.896;2023-02-11T04:21:55;22.05;;;9.77;;
72132;SDS011;60008;50.826;6.896;2023-02-11T04:24:40;22.98;;;8.98;;
72132;SDS011;60008;50.826;6.896;2023-02-11T04:27:27;25.27;;;9.98;;
72132;SDS011;60008;50.826;6.896;2023-02-11T04:30:12;22.63;;;10.20;;
72132;SDS011;60008;50.826;6.896;2023-02-11T04:32:58;27.15;;;11.80;;
72132;SDS011;60008;50.826;6.896;2023-02-11T04:35:43;28.60;;;11.07;;
72132;SDS011;60008;50.826;6.896;2023-02-11T04:38:28;21.38;;;8.73;;
72132;SDS011;60008;50.826;6.896;2023-02-11T04:41:14;25.70;;;9.73;;
72132;SDS011;60008;50.826;6.896;2023-02-11T04:43:58;23.97;;;9.63;;
72132;SDS011;60008;50.826;6.896;2023-02-11T04:46:44;26.15;;;9.77;;
72132;SDS011;60008;50.826;6.896;2023-02-11T04:49:28;26.73;;;9.55;;
72132;SDS011;60008;50.826;6.896;2023-02-11T04:52:13;22.63;;;8.75;;
72132;SDS011;60008;50.826;6.896;2023-02-11T04:54:59;4.55;;;1.98;;
72132;SDS011;60008;50.826;6.896;2023-02-11T04:57:44;10.20;;;4.73;;
72132;SDS011;60008;50.826;6.896;2023-02-11T05:00:29;17.00;;;6.43;;
72132;SDS011;60008;50.826;6.896;2023-02-11T05:03:14;21.40;;;9.43;;
72132;SDS011;60008;50.826;6.896;2023-02-11T05:05:59;20.60;;;7.47;;
72132;SDS011;60008;50.826;6.896;2023-02-11T05:08:45;27.05;;;8.57;;
72132;SDS011;60008;50.826;6.896;2023-02-11T05:11:30;19.53;;;7.83;;
72132;SDS011;60008;50.826;6.896;2023-02-11T05:14:15;18.83;;;8.23;;
72132;SDS011;60008;50.826;6.896;2023-02-11T05:16:59;19.77;;;7.32;;
72132;SDS011;60008;50.826;6.896;2023-02-11T05:19:45;21.63;;;9.10;;
72132;SDS011;60008;50.826;6.896;2023-02-11T05:22:29;20.02;;;8.27;;
72132;SDS011;60008;50.826;6.896;2023-02-11T05:25:15;17.07;;;6.53;;
72132;SDS011;60008;50.826;6.896;2023-02-11T05:28:00;15.80;;;7.18;;
72132;SDS011;60008;50.826;6.896;2023-02-11T05:30:45;20.60;;;8.45;;
72132;SDS011;60008;50.826;6.896;2023-02-11T05:33:30;19.33;;;8.20;;
72132;SDS011;60008;50.826;6.896;2023-02-11T05:36:16;12.57;;;5.13;;
72132;SDS011;60008;50.826;6.896;2023-02-11T05:39:02;20.13;;;7.93;;
72132;SDS011;60008;50.826;6.896;2023-02-11T05:41:47;17.67;;;7.82;;
72132;SDS011;60008;50.826;6.896;2023-02-11T05:44:31;19.90;;;7.10;;
72132;SDS011;60008;50.826;6.896;2023-02-11T05:47:16;20.35;;;6.40;;
72132;SDS011;60008;50.826;6.896;2023-02-11T05:50:01;17.02;;;6.72;;
72132;SDS011;60008;50.826;6.896;2023-02-11T05:52:46;19.23;;;6.87;;
72132;SDS011;60008;50.826;6.896;2023-02-11T05:55:32;18.00;;;7.85;;
72132;SDS011;60008;50.826;6.896;2023-02-11T05:58:17;18.95;;;7.57;;
72132;SDS011;60008;50.826;6.896;2023-02-11T06:01:02;20.15;;;7.22;;
72132;SDS011;60008;50.826;6.896;2023-02-11T06:03:47;22.38;;;7.95;;
72132;SDS011;60008;50.826;6.896;2023-02-11T06:06:33;20.23;;;7.23;;
72132;SDS011;60008;50.826;6.896;2023-02-11T06:09:18;19.52;;;8.18;;
72132;SDS011;60008;50.826;6.896;2023-02-11T06:12:03;18.55;;;6.68;;
72132;SDS011;60008;50.826;6.896;2023-02-11T06:14:48;18.83;;;7.63;;
72132;SDS011;60008;50.826;6.896;2023-02-11T06:17:33;19.35;;;8.48;;
72132;SDS011;60008;50.826;6.896;2023-02-11T06:20:20;17.40;;;7.10;;
72132;SDS011;60008;50.826;6.896;2023-02-11T06:23:05;21.33;;;8.35;;
72132;SDS011;60008;50.826;6.896;2023-02-11T06:25:50;17.75;;;7.72;;
72132;SDS011;60008;50.826;6.896;2023-02-11T06:28:37;21.90;;;8.25;;
72132;SDS011;60008;50.826;6.896;2023-02-11T06:31:26;21.20;;;8.88;;
72132;SDS011;60008;50.826;6.896;2023-02-11T06:34:11;19.43;;;9.03;;
72132;SDS011;60008;50.826;6.896;2023-02-11T06:36:56;23.48;;;8.70;;
72132;SDS011;60008;50.826;6.896;2023-02-11T06:39:43;17.40;;;7.70;;
72132;SDS011;60008;50.826;6.896;2023-02-11T06:42:28;20.92;;;8.25;;
72132;SDS011;60008;50.826;6.896;2023-02-11T06:45:14;20.80;;;8.73;;
72132;SDS011;60008;50.826;6.896;2023-02-11T06:47:59;22.37;;;8.63;;
72132;SDS011;60008;50.826;6.896;2023-02-11T06:50:44;27.63;;;8.77;;
72132;SDS011;60008;50.826;6.896;2023-02-11T06:53:29;18.20;;;7.93;;
72132;SDS011;60008;50.826;6.896;2023-02-11T06:56:16;21.80;;;8.27;;
72132;SDS011;60008;50.826;6.896;2023-02-11T06:59:04;19.77;;;8.13;;
72132;SDS011;60008;50.826;6.896;2023-02-11T07:01:49;19.73;;;7.57;;
72132;SDS011;60008;50.826;6.896;2023-02-11T07:04:34;18.67;;;7.45;;
72132;SDS011;60008;50.826;6.896;2023-02-11T07:07:20;18.80;;;7.82;;
72132;SDS011;60008;50.826;6.896;2023-02-11T07:10:04;21.42;;;8.82;;
72132;SDS011;60008;50.826;6.896;2023-02-11T07:12:50;20.17;;;7.78;;
72132;SDS011;60008;50.826;6.896;2023-02-11T07:15:35;20.70;;;7.17;;
72132;SDS011;60008;50.826;6.896;2023-02-11T07:18:21;18.40;;;8.27;;
72132;SDS011;60008;50.826;6.896;2023-02-11T07:21:07;21.92;;;8.40;;
72132;SDS011;60008;50.826;6.896;2023-02-11T07:23:53;22.08;;;8.82;;
72132;SDS011;60008;50.826;6.896;2023-02-11T07:26:39;16.27;;;7.40;;
72132;SDS011;60008;50.826;6.896;2023-02-11T07:29:24;20.43;;;8.10;;
72132;SDS011;60008;50.826;6.896;2023-02-11T07:32:10;18.80;;;8.48;;
72132;SDS011;60008;50.826;6.896;2023-02-11T07:34:54;18.55;;;7.45;;
72132;SDS011;60008;50.826;6.896;2023-02-11T07:37:39;22.00;;;7.43;;
72132;SDS011;60008;50.826;6.896;2023-02-11T07:40:25;21.58;;;8.27;;
72132;SDS011;60008;50.826;6.896;2023-02-11T07:43:10;18.17;;;7.03;;
72132;SDS011;60008;50.826;6.896;2023-02-11T07:45:55;21.25;;;8.05;;
72132;SDS011;60008;50.826;6.896;2023-02-11T07:48:40;20.27;;;7.22;;
72132;SDS011;60008;50.826;6.896;2023-02-11T07:51:26;23.45;;;8.93;;
72132;SDS011;60008;50.826;6.896;2023-02-11T07:54:12;20.05;;;8.30;;
72132;SDS011;60008;50.826;6.896;2023-02-11T07:56:57;22.13;;;8.70;;
72132;SDS011;60008;50.826;6.896;2023-02-11T07:59:42;23.75;;;8.70;;
72132;SDS011;60008;50.826;6.896;2023-02-11T08:02:27;21.48;;;9.27;;
72132;SDS011;60008;50.826;6.896;2023-02-11T08:05:12;22.25;;;8.80;;
72132;SDS011;60008;50.826;6.896;2023-02-11T08:07:57;24.15;;;9.00;;
72132;SDS011;60008;50.826;6.896;2023-02-11T08:10:42;22.80;;;9.30;;
72132;SDS011;60008;50.826;6.896;2023-02-11T08:13:27;21.20;;;8.10;;
72132;SDS011;60008;50.826;6.896;2023-02-11T08:16:23;18.90;;;8.20;;
72132;SDS011;60008;50.826;6.896;2023-02-11T08:19:14;17.33;;;7.78;;
72132;SDS011;60008;50.826;6.896;2023-02-11T08:22:00;20.85;;;8.52;;
72132;SDS011;60008;50.826;6.896;2023-02-11T08:24:45;21.10;;;8.63;;
72132;SDS011;60008;50.826;6.896;2023-02-11T08:27:30;19.00;;;8.00;;
72132;SDS011;60008;50.826;6.896;2023-02-11T08:30:15;20.83;;;9.02;;
72132;SDS011;60008;50.826;6.896;2023-02-11T08:33:00;22.65;;;8.48;;
72132;SDS011;60008;50.826;6.896;2023-02-11T08:35:46;13.32;;;5.72;;
72132;SDS011;60008;50.826;6.896;2023-02-11T08:38:30;8.60;;;3.83;;
72132;SDS011;60008;50.826;6.896;2023-02-11T08:41:16;12.25;;;5.15;;
72132;SDS011;60008;50.826;6.896;2023-02-11T08:44:01;18.98;;;7.70;;
72132;SDS011;60008;50.826;6.896;2023-02-11T08:46:48;16.90;;;7.45;;
72132;SDS011;60008;50.826;6.896;2023-02-11T08:49:33;18.58;;;7.45;;
72132;SDS011;60008;50.826;6.896;2023-02-11T08:52:18;19.07;;;8.27;;
72132;SDS011;60008;50.826;6.896;2023-02-11T08:55:03;19.05;;;8.60;;
72132;SDS011;60008;50.826;6.896;2023-02-11T08:57:49;23.83;;;8.70;;
72132;SDS011;60008;50.826;6.896;2023-02-11T09:00:34;18.58;;;8.00;;
72132;SDS011;60008;50.826;6.896;2023-02-11T09:03:19;21.35;;;8.20;;
72132;SDS011;60008;50.826;6.896;2023-02-11T09:06:05;15.87;;;6.10;;
72132;SDS011;60008;50.826;6.896;2023-02-11T09:08:53;18.73;;;7.72;;
72132;SDS011;60008;50.826;6.896;2023-02-11T09:11:41;24.58;;;8.43;;
72132;SDS011;60008;50.826;6.896;2023-02-11T09:14:28;19.52;;;7.63;;
72132;SDS011;60008;50.826;6.896;2023-02-11T09:17:13;7.28;;;3.33;;
72132;SDS011;60008;50.826;6.896;2023-02-11T09:19:58;18.27;;;8.00;;
72132;SDS011;60008;50.826;6.896;2023-02-11T09:22:43;19.33;;;7.72;;
72132;SDS011;60008;50.826;6.896;2023-02-11T09:25:28;24.85;;;8.93;;
72132;SDS011;60008;50.826;6.896;2023-02-11T09:28:13;22.08;;;8.52;;
72132;SDS011;60008;50.826;6.896;2023-02-11T09:30:58;23.88;;;8.77;;
72132;SDS011;60008;50.826;6.896;2023-02-11T09:33:50;12.57;;;5.37;;
72132;SDS011;60008;50.826;6.896;2023-02-11T09:36:38;19.10;;;7.72;;
72132;SDS011;60008;50.826;6.896;2023-02-11T09:39:24;16.27;;;6.72;;
72132;SDS011;60008;50.826;6.896;2023-02-11T09:45:28;17.35;;;6.93;;
72132;SDS011;60008;50.826;6.896;2023-02-11T09:48:17;6.93;;;3.07;;
72132;SDS011;60008;50.826;6.896;2023-02-11T09:51:05;17.42;;;7.78;;
72132;SDS011;60008;50.826;6.896;2023-02-11T09:54:02;20.50;;;8.73;;
72132;SDS011;60008;50.826;6.896;2023-02-11T09:56:53;6.68;;;3.30;;
72132;SDS011;60008;50.826;6.896;2023-02-11T09:59:38;20.40;;;8.15;;
72132;SDS011;60008;50.826;6.896;2023-02-11T10:02:33;14.50;;;5.73;;
72132;SDS011;60008;50.826;6.896;2023-02-11T10:18:01;18.87;;;6.47;;
72132;SDS011;60008;50.826;6.896;2023-02-11T10:21:05;21.40;;;8.25;;
72132;SDS011;60008;50.826;6.896;2023-02-11T10:24:02;17.73;;;8.07;;
72132;SDS011;60008;50.826;6.896;2023-02-11T10:26:50;21.98;;;8.30;;
72132;SDS011;60008;50.826;6.896;2023-02-11T10:29:37;17.27;;;7.68;;
72132;SDS011;60008;50.826;6.896;2023-02-11T10:35:43;15.25;;;6.90;;
72132;SDS011;60008;50.826;6.896;2023-02-11T10:38:29;18.30;;;7.95;;
72132;SDS011;60008;50.826;6.896;2023-02-11T10:41:25;19.63;;;7.78;;
72132;SDS011;60008;50.826;6.896;2023-02-11T10:47:20;20.37;;;7.77;;
72132;SDS011;60008;50.826;6.896;2023-02-11T10:50:23;19.08;;;7.50;;
72132;SDS011;60008;50.826;6.896;2023-02-11T10:53:17;14.27;;;5.60;;
72132;SDS011;60008;50.826;6.896;2023-02-11T10:56:05;16.60;;;7.78;;
72132;SDS011;60008;50.826;6.896;2023-02-11T10:58:59;21.33;;;8.02;;
72132;SDS011;60008;50.826;6.896;2023-02-11T11:01:50;17.87;;;7.10;;
72132;SDS011;60008;50.826;6.896;2023-02-11T11:04:38;22.05;;;8.75;;
72132;SDS011;60008;50.826;6.896;2023-02-11T11:07:28;15.25;;;6.68;;
72132;SDS011;60008;50.826;6.896;2023-02-11T11:10:25;17.23;;;7.65;;
72132;SDS011;60008;50.826;6.896;2023-02-11T11:21:52;11.63;;;5.47;;
72132;SDS011;60008;50.826;6.896;2023-02-11T11:24:39;15.13;;;6.35;;
72132;SDS011;60008;50.826;6.896;2023-02-11T11:27:28;15.15;;;6.60;;
72132;SDS011;60008;50.826;6.896;2023-02-11T11:30:14;17.80;;;8.43;;
72132;SDS011;60008;50.826;6.896;2023-02-11T11:33:01;14.13;;;6.05;;
72132;SDS011;60008;50.826;6.896;2023-02-11T11:36:00;18.60;;;7.97;;
72132;SDS011;60008;50.826;6.896;2023-02-11T11:38:59;21.17;;;8.38;;
72132;SDS011;60008;50.826;6.896;2023-02-11T11:41:52;22.17;;;9.13;;
72132;SDS011;60008;50.826;6.896;2023-02-11T11:44:42;19.80;;;8.00;;
72132;SDS011;60008;50.826;6.896;2023-02-11T11:47:47;22.80;;;9.63;;
72132;SDS011;60008;50.826;6.896;2023-02-11T11:50:41;20.55;;;8.82;;
72132;SDS011;60008;50.826;6.896;2023-02-11T11:53:47;20.63;;;9.55;;
72132;SDS011;60008;50.826;6.896;2023-02-11T11:59:54;19.30;;;7.87;;
72132;SDS011;60008;50.826;6.896;2023-02-11T12:02:53;22.63;;;9.90;;
72132;SDS011;60008;50.826;6.896;2023-02-11T12:05:53;26.27;;;8.60;;
72132;SDS011;60008;50.826;6.896;2023-02-11T12:09:08;22.83;;;9.93;;
72132;SDS011;60008;50.826;6.896;2023-02-11T12:18:34;23.08;;;9.68;;
72132;SDS011;60008;50.826;6.896;2023-02-11T12:21:38;26.85;;;10.13;;
72132;SDS011;60008;50.826;6.896;2023-02-11T12:27:55;24.88;;;9.32;;
72132;SDS011;60008;50.826;6.896;2023-02-11T12:30:48;18.30;;;8.07;;
72132;SDS011;60008;50.826;6.896;2023-02-11T12:38:04;23.58;;;9.75;;
72132;SDS011;60008;50.826;6.896;2023-02-11T12:43:38;23.48;;;10.23;;
72132;SDS011;60008;50.826;6.896;2023-02-11T12:46:47;24.83;;;9.93;;
72132;SDS011;60008;50.826;6.896;2023-02-11T12:56:18;29.23;;;10.80;;
72132;SDS011;60008;50.826;6.896;2023-02-11T12:59:16;29.38;;;11.23;;
72132;SDS011;60008;50.826;6.896;2023-02-11T13:05:28;23.10;;;9.02;;
72132;SDS011;60008;50.826;6.896;2023-02-11T13:08:26;18.35;;;8.65;;
72132;SDS011;60008;50.826;6.896;2023-02-11T13:11:19;21.05;;;9.30;;
72132;SDS011;60008;50.826;6.896;2023-02-11T13:14:11;24.27;;;10.27;;
72132;SDS011;60008;50.826;6.896;2023-02-11T13:17:02;26.67;;;10.47;;
72132;SDS011;60008;50.826;6.896;2023-02-11T13:19:59;29.02;;;12.20;;
72132;SDS011;60008;50.826;6.896;2023-02-11T13:22:58;29.00;;;11.68;;
72132;SDS011;60008;50.826;6.896;2023-02-11T13:28:50;29.35;;;12.35;;
72132;SDS011;60008;50.826;6.896;2023-02-11T13:31:40;26.97;;;11.43;;
72132;SDS011;60008;50.826;6.896;2023-02-11T13:37:35;25.70;;;11.77;;
72132;SDS011;60008;50.826;6.896;2023-02-11T13:40:23;26.80;;;10.55;;
72132;SDS011;60008;50.826;6.896;2023-02-11T13:43:21;23.38;;;9.27;;
72132;SDS011;60008;50.826;6.896;2023-02-11T13:46:11;27.47;;;11.27;;
72132;SDS011;60008;50.826;6.896;2023-02-11T13:48:58;29.77;;;11.88;;
72132;SDS011;60008;50.826;6.896;2023-02-11T13:51:43;25.23;;;10.02;;
72132;SDS011;60008;50.826;6.896;2023-02-11T13:54:30;29.15;;;11.13;;
72132;SDS011;60008;50.826;6.896;2023-02-11T14:00:42;30.73;;;12.87;;
72132;SDS011;60008;50.826;6.896;2023-02-11T14:06:37;25.75;;;9.93;;
72132;SDS011;60008;50.826;6.896;2023-02-11T14:09:41;26.15;;;10.82;;
72132;SDS011;60008;50.826;6.896;2023-02-11T14:12:32;23.50;;;10.05;;
72132;SDS011;60008;50.826;6.896;2023-02-11T14:15:19;24.37;;;9.13;;
72132;SDS011;60008;50.826;6.896;2023-02-11T14:27:16;26.80;;;11.32;;
72132;SDS011;60008;50.826;6.896;2023-02-11T14:33:06;29.90;;;11.85;;
72132;SDS011;60008;50.826;6.896;2023-02-11T14:36:06;26.00;;;10.63;;
72132;SDS011;60008;50.826;6.896;2023-02-11T14:41:44;28.80;;;11.45;;
72132;SDS011;60008;50.826;6.896;2023-02-11T14:44:32;27.93;;;10.73;;
72132;SDS011;60008;50.826;6.896;2023-02-11T14:47:18;27.27;;;10.20;;
72132;SDS011;60008;50.826;6.896;2023-02-11T14:50:16;27.83;;;10.82;;
72132;SDS011;60008;50.826;6.896;2023-02-11T14:53:15;28.77;;;10.70;;
72132;SDS011;60008;50.826;6.896;2023-02-11T14:56:02;20.17;;;7.93;;
72132;SDS011;60008;50.826;6.896;2023-02-11T14:58:59;23.03;;;9.40;;
72132;SDS011;60008;50.826;6.896;2023-02-11T15:01:50;25.73;;;10.80;;
72132;SDS011;60008;50.826;6.896;2023-02-11T15:04:38;20.40;;;7.80;;
72132;SDS011;60008;50.826;6.896;2023-02-11T15:07:25;27.10;;;10.27;;
72132;SDS011;60008;50.826;6.896;2023-02-11T15:10:18;31.30;;;12.00;;
72132;SDS011;60008;50.826;6.896;2023-02-11T15:13:22;24.73;;;10.03;;
72132;SDS011;60008;50.826;6.896;2023-02-11T15:16:11;24.92;;;10.35;;
72132;SDS011;60008;50.826;6.896;2023-02-11T15:19:03;28.42;;;10.80;;
72132;SDS011;60008;50.826;6.896;2023-02-11T15:21:51;26.25;;;10.73;;
72132;SDS011;60008;50.826;6.896;2023-02-11T15:24:37;21.77;;;9.48;;
72132;SDS011;60008;50.826;6.896;2023-02-11T15:27:23;26.37;;;10.13;;
72132;SDS011;60008;50.826;6.896;2023-02-11T15:30:22;22.98;;;9.73;;
72132;SDS011;60008;50.826;6.896;2023-02-11T15:33:18;24.60;;;10.20;;
72132;SDS011;60008;50.826;6.896;2023-02-11T15:36:08;22.75;;;9.90;;
72132;SDS011;60008;50.826;6.896;2023-02-11T15:39:15;24.20;;;9.65;;
72132;SDS011;60008;50.826;6.896;2023-02-11T15:42:18;21.63;;;9.43;;
72132;SDS011;60008;50.826;6.896;2023-02-11T15:48:13;28.42;;;11.02;;
72132;SDS011;60008;50.826;6.896;2023-02-11T15:51:07;24.80;;;10.35;;
72132;SDS011;60008;50.826;6.896;2023-02-11T15:54:02;23.60;;;9.73;;
72132;SDS011;60008;50.826;6.896;2023-02-11T15:56:51;21.47;;;9.77;;
72132;SDS011;60008;50.826;6.896;2023-02-11T15:59:46;25.88;;;10.15;;
72132;SDS011;60008;50.826;6.896;2023-02-11T16:02:33;20.08;;;9.10;;
72132;SDS011;60008;50.826;6.896;2023-02-11T16:05:34;23.77;;;10.45;;
72132;SDS011;60008;50.826;6.896;2023-02-11T16:08:26;23.35;;;9.77;;
72132;SDS011;60008;50.826;6.896;2023-02-11T16:11:30;25.97;;;10.87;;
72132;SDS011;60008;50.826;6.896;2023-02-11T16:14:34;25.88;;;10.05;;
72132;SDS011;60008;50.826;6.896;2023-02-11T16:17:22;25.67;;;9.20;;
72132;SDS011;60008;50.826;6.896;2023-02-11T16:20:16;23.05;;;9.55;;
72132;SDS011;60008;50.826;6.896;2023-02-11T16:23:05;22.60;;;9.73;;
72132;SDS011;60008;50.826;6.896;2023-02-11T16:25:54;24.60;;;10.30;;
72132;SDS011;60008;50.826;6.896;2023-02-11T16:28:43;26.40;;;10.55;;
72132;SDS011;60008;50.826;6.896;2023-02-11T16:31:35;24.45;;;10.30;;
72132;SDS011;60008;50.826;6.896;2023-02-11T16:34:23;26.40;;;10.00;;
72132;SDS011;60008;50.826;6.896;2023-02-11T16:37:09;28.02;;;10.52;;
72132;SDS011;60008;50.826;6.896;2023-02-11T16:39:54;23.67;;;10.30;;
72132;SDS011;60008;50.826;6.896;2023-02-11T16:42:40;27.13;;;10.52;;
72132;SDS011;60008;50.826;6.896;2023-02-11T16:45:25;25.83;;;10.95;;
72132;SDS011;60008;50.826;6.896;2023-02-11T16:48:11;28.70;;;10.60;;
72132;SDS011;60008;50.826;6.896;2023-02-11T16:50:59;23.50;;;10.57;;
72132;SDS011;60008;50.826;6.896;2023-02-11T16:53:44;24.10;;;9.90;;
72132;SDS011;60008;50.826;6.896;2023-02-11T16:56:29;24.75;;;9.75;;
72132;SDS011;60008;50.826;6.896;2023-02-11T16:59:14;28.33;;;11.07;;
72132;SDS011;60008;50.826;6.896;2023-02-11T17:01:59;24.08;;;10.52;;
72132;SDS011;60008;50.826;6.896;2023-02-11T17:04:45;29.40;;;12.68;;
72132;SDS011;60008;50.826;6.896;2023-02-11T17:07:30;28.20;;;12.57;;
72132;SDS011;60008;50.826;6.896;2023-02-11T17:10:20;27.55;;;12.30;;
72132;SDS011;60008;50.826;6.896;2023-02-11T17:13:06;31.25;;;13.40;;
72132;SDS011;60008;50.826;6.896;2023-02-11T17:15:52;25.52;;;10.70;;
72132;SDS011;60008;50.826;6.896;2023-02-11T17:18:37;30.25;;;11.98;;
72132;SDS011;60008;50.826;6.896;2023-02-11T17:21:22;32.13;;;13.07;;
72132;SDS011;60008;50.826;6.896;2023-02-11T17:24:12;29.02;;;12.10;;
72132;SDS011;60008;50.826;6.896;2023-02-11T17:26:58;31.13;;;12.55;;
72132;SDS011;60008;50.826;6.896;2023-02-11T17:29:44;29.88;;;12.68;;
72132;SDS011;60008;50.826;6.896;2023-02-11T17:32:28;30.52;;;13.27;;
72132;SDS011;60008;50.826;6.896;2023-02-11T17:35:13;27.57;;;12.00;;
72132;SDS011;60008;50.826;6.896;2023-02-11T17:37:59;28.33;;;12.85;;
72132;SDS011;60008;50.826;6.896;2023-02-11T17:40:44;28.27;;;12.27;;
72132;SDS011;60008;50.826;6.896;2023-02-11T17:43:30;25.20;;;11.85;;
72132;SDS011;60008;50.826;6.896;2023-02-11T17:46:15;30.10;;;12.98;;
72132;SDS011;60008;50.826;6.896;2023-02-11T17:49:01;28.73;;;12.40;;
72132;SDS011;60008;50.826;6.896;2023-02-11T17:51:47;28.27;;;12.73;;
72132;SDS011;60008;50.826;6.896;2023-02-11T17:54:32;31.33;;;13.40;;
72132;SDS011;60008;50.826;6.896;2023-02-11T17:57:17;31.20;;;13.57;;
72132;SDS011;60008;50.826;6.896;2023-02-11T18:00:02;27.20;;;12.15;;
72132;SDS011;60008;50.826;6.896;2023-02-11T18:02:48;29.27;;;13.07;;
72132;SDS011;60008;50.826;6.896;2023-02-11T18:05:36;31.77;;;12.75;;
72132;SDS011;60008;50.826;6.896;2023-02-11T18:08:21;26.73;;;11.95;;
72132;SDS011;60008;50.826;6.896;2023-02-11T18:11:09;29.50;;;11.35;;
72132;SDS011;60008;50.826;6.896;2023-02-11T18:13:59;27.05;;;11.70;;
72132;SDS011;60008;50.826;6.896;2023-02-11T18:16:48;26.80;;;11.60;;
72132;SDS011;60008;50.826;6.896;2023-02-11T18:19:34;31.67;;;12.93;;
72132;SDS011;60008;50.826;6.896;2023-02-11T18:22:20;29.10;;;12.48;;
72132;SDS011;60008;50.826;6.896;2023-02-11T18:25:06;28.27;;;11.85;;
72132;SDS011;60008;50.826;6.896;2023-02-11T18:27:52;28.38;;;11.90;;
72132;SDS011;60008;50.826;6.896;2023-02-11T18:30:37;32.27;;;12.07;;
72132;SDS011;60008;50.826;6.896;2023-02-11T18:33:22;24.67;;;9.95;;
72132;SDS011;60008;50.826;6.896;2023-02-11T18:36:11;28.08;;;11.77;;
72132;SDS011;60008;50.826;6.896;2023-02-11T18:38:58;28.13;;;11.93;;